Terminal Aerodrome Forecast
Issued by NWS

Home | Current Version | Previous Version | Text Only | Print | Product List | Glossary On
Versions: 1 2 3 4 5 6 7 8 9 10 11 12 13 14 15 16 17 18 19
000
FTUS41 KBOX 270852 AAD
TAFBAF
TAF AMD
KBAF 270852Z 2709/2806 VRB03KT P6SM -SHRA BKN035 OVC050
     FM271000 VRB03KT 4SM BR VCSH OVC015
     FM271200 00000KT 3SM BR VCSH OVC008
     FM271300 VRB03KT 5SM BR BKN008
     FM271500 31005KT P6SM BKN150
     FM271700 25005KT P6SM SCT250
     FM280000 00000KT P6SM FEW250=

USA.gov is the U.S. government's official web portal to all federal, state and local government web resources and services.